createdAt,value
2019-05-21T00:02:57.331Z,100.00
2019-05-21T00:06:03.920Z,100.00
2019-05-21T00:09:10.520Z,100.00
2019-05-21T00:12:17.286Z,100.00
2019-05-21T00:15:23.905Z,100.00
2019-05-21T00:18:30.335Z,99.03
2019-05-21T00:21:37.190Z,100.00
2019-05-21T00:24:48.432Z,100.00
2019-05-21T00:28:01.279Z,100.00
2019-05-21T00:32:03.949Z,100.00
2019-05-21T00:36:04.935Z,100.00
2019-05-21T00:40:05.551Z,100.00
2019-05-21T00:43:12.290Z,100.00
2019-05-21T00:46:18.798Z,100.00
2019-05-21T00:49:25.531Z,100.00
2019-05-21T00:52:32.148Z,100.00
2019-05-21T00:55:38.771Z,100.00
2019-05-21T00:58:46.335Z,100.00
2019-05-21T01:01:53.033Z,100.00
2019-05-21T01:05:01.353Z,100.00
2019-05-21T01:08:08.053Z,100.00
2019-05-21T01:11:14.695Z,100.00
2019-05-21T01:14:21.255Z,100.00
2019-05-21T01:17:27.830Z,100.00
2019-05-21T01:20:34.428Z,100.00
2019-05-21T01:23:43.798Z,100.00
2019-05-21T01:26:50.707Z,100.00
2019-05-21T01:29:57.275Z,100.00
2019-05-21T01:33:03.741Z,100.00
2019-05-21T01:36:10.756Z,100.00
2019-05-21T01:39:17.446Z,100.00
2019-05-21T01:42:23.981Z,100.00
2019-05-21T01:45:30.780Z,100.00
2019-05-21T01:48:37.294Z,100.00
2019-05-21T01:51:45.058Z,100.00
2019-05-21T01:54:52.792Z,100.00
2019-05-21T01:57:59.312Z,100.00
2019-05-21T02:01:05.970Z,100.00
2019-05-21T02:04:12.429Z,100.00
2019-05-21T02:07:18.883Z,100.00
2019-05-21T02:10:25.568Z,100.00
2019-05-21T02:13:32.142Z,100.00
2019-05-21T02:16:38.772Z,100.00
2019-05-21T02:19:48.352Z,100.00
2019-05-21T02:22:55.019Z,100.00
2019-05-21T02:26:02.015Z,100.00
2019-05-21T02:29:08.515Z,100.00
2019-05-21T02:32:15.064Z,100.00
2019-05-21T02:35:21.760Z,100.00
2019-05-21T02:38:28.301Z,100.00
2019-05-21T02:41:34.818Z,100.00
2019-05-21T02:44:44.633Z,100.00
2019-05-21T02:47:51.220Z,100.00
2019-05-21T02:50:57.767Z,100.00
2019-05-21T02:54:04.404Z,100.00
2019-05-21T02:57:11.035Z,100.00
2019-05-21T03:00:38.761Z,100.00
2019-05-21T03:03:48.005Z,98.48
2019-05-21T03:06:55.592Z,99.28
2019-05-21T03:10:03.188Z,100.00
2019-05-21T03:13:09.837Z,100.00
2019-05-21T03:16:16.520Z,100.00
2019-05-21T03:19:23.360Z,100.00
2019-05-21T03:22:32.094Z,100.00
2019-05-21T03:25:44.713Z,100.00
2019-05-21T03:28:52.482Z,100.00
2019-05-21T03:31:59.005Z,98.14
2019-05-21T03:35:05.959Z,98.64
2019-05-21T03:38:12.627Z,99.28
2019-05-21T03:41:19.146Z,99.97
2019-05-21T03:44:25.700Z,100.00
2019-05-21T03:47:32.207Z,100.00
2019-05-21T03:50:38.855Z,99.84
2019-05-21T03:53:48.140Z,99.42
2019-05-21T03:56:54.623Z,99.30
2019-05-21T04:00:01.253Z,99.55
2019-05-21T04:03:08.550Z,100.00
2019-05-21T04:06:15.073Z,100.00
2019-05-21T04:09:21.622Z,100.00
2019-05-21T04:12:28.145Z,100.00
2019-05-21T04:15:36.910Z,100.00
2019-05-21T04:18:56.986Z,100.00
2019-05-21T04:22:03.520Z,100.00
2019-05-21T04:25:10.161Z,100.00
2019-05-21T04:28:18.883Z,99.88
2019-05-21T04:31:25.536Z,99.50
2019-05-21T04:34:32.162Z,99.34
2019-05-21T04:37:38.739Z,99.93
2019-05-21T04:40:45.410Z,99.19
2019-05-21T04:43:51.841Z,99.19
2019-05-21T04:46:58.353Z,98.42
2019-05-21T04:50:05.534Z,98.51
2019-05-21T04:53:12.001Z,98.41
2019-05-21T04:56:18.522Z,97.62
2019-05-21T04:59:24.958Z,97.54
2019-05-21T05:02:31.376Z,99.17
2019-05-21T05:05:37.972Z,97.02
2019-05-21T05:08:45.806Z,96.25
2019-05-21T05:11:52.324Z,96.24
2019-05-21T05:14:58.872Z,96.29
2019-05-21T05:18:05.793Z,96.13
2019-05-21T05:21:12.284Z,95.36
2019-05-21T05:24:18.816Z,95.71
2019-05-21T05:27:25.209Z,94.55
2019-05-21T05:30:31.782Z,94.99
2019-05-21T05:33:42.809Z,92.94
2019-05-21T05:36:49.416Z,92.49
2019-05-21T05:39:55.813Z,93.00
2019-05-21T05:43:02.329Z,95.65
2019-05-21T05:46:08.855Z,94.94
2019-05-21T05:49:20.856Z,93.56
2019-05-21T05:52:27.437Z,94.22
2019-05-21T05:55:34.061Z,95.80
2019-05-21T05:58:40.445Z,94.62
2019-05-21T06:01:48.706Z,96.02
2019-05-21T06:04:55.169Z,95.18
2019-05-21T06:08:01.932Z,95.46
2019-05-21T06:11:08.400Z,96.19
2019-05-21T06:14:14.837Z,96.27
2019-05-21T06:17:21.280Z,94.66
2019-05-21T06:20:27.920Z,95.75
2019-05-21T06:23:34.415Z,95.32
2019-05-21T06:26:43.060Z,96.12
2019-05-21T06:29:49.149Z,94.16
2019-05-21T06:32:55.619Z,94.15
2019-05-21T06:36:02.469Z,92.63
2019-05-21T06:39:09.431Z,89.94
2019-05-21T06:42:15.829Z,90.55
2019-05-21T06:45:22.929Z,89.01
2019-05-21T06:48:29.428Z,90.07
2019-05-21T06:51:35.998Z,90.42
2019-05-21T06:54:43.739Z,88.54
2019-05-21T06:57:50.651Z,87.48
2019-05-21T07:00:57.398Z,87.95
2019-05-21T07:04:03.900Z,86.79
2019-05-21T07:07:10.470Z,85.65
2019-05-21T07:10:17.283Z,85.95
2019-05-21T07:13:23.833Z,83.23
2019-05-21T07:16:30.430Z,84.34
2019-05-21T07:19:37.026Z,84.66
2019-05-21T07:22:44.066Z,84.67
2019-05-21T07:25:50.552Z,82.90
2019-05-21T07:28:57.487Z,79.73
2019-05-21T07:32:04.225Z,81.55
2019-05-21T07:35:11.099Z,81.19
2019-05-21T07:38:18.671Z,82.65
2019-05-21T07:41:25.441Z,80.58
2019-05-21T07:44:34.620Z,81.83
2019-05-21T07:47:41.540Z,80.26
2019-05-21T07:50:47.936Z,80.43
2019-05-21T07:53:54.614Z,82.69
2019-05-21T07:57:01.006Z,80.38
2019-05-21T08:00:09.385Z,82.37
2019-05-21T08:03:15.893Z,81.93
2019-05-21T08:06:22.470Z,81.20
2019-05-21T08:09:29.199Z,78.60
2019-05-21T08:12:39.389Z,79.08
2019-05-21T08:15:50.230Z,79.78
2019-05-21T08:18:56.679Z,80.96
2019-05-21T08:22:06.461Z,79.12
2019-05-21T08:25:14.832Z,78.06
2019-05-21T08:28:22.272Z,78.97
2019-05-21T08:31:28.726Z,79.64
2019-05-21T08:34:35.483Z,80.29
2019-05-21T08:37:42.250Z,78.83
2019-05-21T08:40:48.916Z,78.69
2019-05-21T08:43:56.896Z,78.76
2019-05-21T08:47:03.402Z,78.27
2019-05-21T08:50:15.150Z,79.95
2019-05-21T08:53:21.691Z,78.06
2019-05-21T08:56:28.212Z,77.49
2019-05-21T08:59:34.834Z,78.30
2019-05-21T09:02:42.124Z,78.14
2019-05-21T09:05:48.706Z,78.89
2019-05-21T09:08:55.213Z,78.49
2019-05-21T09:12:01.759Z,78.30
2019-05-21T09:15:09.550Z,77.43
2019-05-21T09:18:16.039Z,74.23
2019-05-21T09:21:22.642Z,74.76
2019-05-21T09:24:29.125Z,76.08
2019-05-21T09:27:35.759Z,78.41
2019-05-21T09:30:45.365Z,80.15
2019-05-21T09:33:51.788Z,80.15
2019-05-21T09:36:58.536Z,81.71
2019-05-21T09:40:06.332Z,82.24
2019-05-21T09:43:13.139Z,82.03
2019-05-21T09:46:19.759Z,82.06
2019-05-21T09:49:26.289Z,82.89
2019-05-21T09:52:32.901Z,83.91
2019-05-21T09:55:39.512Z,82.33
2019-05-21T09:58:47.020Z,80.82
2019-05-21T10:02:00.602Z,81.25
2019-05-21T10:05:07.396Z,79.49
2019-05-21T10:08:16.212Z,77.64
2019-05-21T10:11:23.058Z,77.96
2019-05-21T10:14:33.720Z,78.81
2019-05-21T10:17:37.841Z,77.82
2019-05-21T10:20:47.636Z,77.58
2019-05-21T10:23:54.463Z,77.56
2019-05-21T10:27:03.405Z,77.38
2019-05-21T10:30:10.160Z,78.42
2019-05-21T10:33:16.609Z,76.52
2019-05-21T10:36:24.424Z,77.49
2019-05-21T10:39:30.901Z,76.89
2019-05-21T10:42:37.661Z,75.09
2019-05-21T10:45:46.752Z,75.47
2019-05-21T10:48:53.415Z,76.34
2019-05-21T10:51:59.832Z,76.92
2019-05-21T10:55:07.211Z,75.50
2019-05-21T10:58:13.778Z,75.69
2019-05-21T11:01:26.552Z,75.18
2019-05-21T11:04:55.527Z,74.96
2019-05-21T11:08:22.983Z,74.33
2019-05-21T11:11:10.425Z,74.48
2019-05-21T11:14:17.146Z,74.08
2019-05-21T11:17:24.005Z,74.25
2019-05-21T11:20:30.634Z,73.40
2019-05-21T11:23:37.208Z,68.40
2019-05-21T11:26:46.663Z,73.59
2019-05-21T11:29:53.165Z,69.65
2019-05-21T11:32:59.847Z,70.50
2019-05-21T11:36:07.378Z,72.79
2019-05-21T11:39:13.992Z,73.50
2019-05-21T11:42:20.679Z,73.01
2019-05-21T11:45:32.233Z,70.19
2019-05-21T11:48:35.854Z,71.80
2019-05-21T11:51:43.129Z,71.49
2019-05-21T11:54:50.139Z,72.08
2019-05-21T11:58:00.141Z,70.44
2019-05-21T12:01:06.865Z,70.72
2019-05-21T12:04:14.308Z,65.89
2019-05-21T12:07:21.115Z,65.13
2019-05-21T12:10:27.727Z,67.27
2019-05-21T12:13:34.212Z,65.60
2019-05-21T12:16:43.714Z,67.87
2019-05-21T12:19:49.417Z,67.98
2019-05-21T12:22:55.958Z,66.65
2019-05-21T12:26:02.588Z,65.28
2019-05-21T12:29:09.338Z,65.48
2019-05-21T12:32:15.807Z,65.94
2019-05-21T12:35:22.623Z,65.21
2019-05-21T12:38:29.169Z,62.56
2019-05-21T12:41:35.952Z,64.21
2019-05-21T12:44:45.408Z,64.39
2019-05-21T12:47:51.955Z,64.23
2019-05-21T12:50:59.750Z,61.96
2019-05-21T12:54:06.591Z,62.75
2019-05-21T12:57:13.137Z,63.58
2019-05-21T13:00:20.283Z,62.31
2019-05-21T13:03:26.822Z,61.08
2019-05-21T13:06:35.381Z,59.54
2019-05-21T13:09:43.139Z,57.58
2019-05-21T13:12:51.263Z,58.66
2019-05-21T13:15:58.766Z,59.06
2019-05-21T13:19:05.385Z,55.23
2019-05-21T13:22:12.048Z,57.71
2019-05-21T13:25:19.022Z,57.16
2019-05-21T13:28:25.517Z,57.30
2019-05-21T13:31:32.057Z,60.23
2019-05-21T13:34:38.518Z,59.18
2019-05-21T13:37:46.400Z,59.71
2019-05-21T13:40:53.810Z,61.29
2019-05-21T13:44:00.360Z,57.25
2019-05-21T13:47:07.146Z,58.46
2019-05-21T13:50:14.121Z,56.05
2019-05-21T13:53:22.056Z,55.84
2019-05-21T13:56:28.959Z,62.79
2019-05-21T13:59:35.792Z,64.28
2019-05-21T14:02:45.456Z,63.23
2019-05-21T14:05:52.130Z,63.55
2019-05-21T14:08:58.731Z,65.62
2019-05-21T14:12:05.762Z,65.46
2019-05-21T14:15:13.520Z,65.59
2019-05-21T14:18:20.106Z,65.34
2019-05-21T14:21:27.749Z,65.91
2019-05-21T14:24:34.300Z,64.79
2019-05-21T14:27:44.905Z,63.46
2019-05-21T14:30:49.530Z,62.39
2019-05-21T14:33:56.317Z,62.00
2019-05-21T14:37:02.816Z,62.08
2019-05-21T14:40:10.919Z,61.84
2019-05-21T14:43:17.440Z,60.38
2019-05-21T14:46:23.962Z,61.06
2019-05-21T14:49:30.743Z,59.61
2019-05-21T14:52:37.244Z,59.72
2019-05-21T14:55:47.830Z,60.66
2019-05-21T14:58:54.302Z,62.79
2019-05-21T15:02:00.777Z,62.31
2019-05-21T15:05:07.721Z,61.91
2019-05-21T15:08:14.188Z,62.50
2019-05-21T15:11:20.699Z,62.24
2019-05-21T15:14:27.219Z,61.19
2019-05-21T15:17:33.627Z,63.15
2019-05-21T15:20:51.404Z,62.97
2019-05-21T15:24:00.152Z,64.35
2019-05-21T15:27:06.796Z,65.11
2019-05-21T15:30:13.593Z,64.80
2019-05-21T15:33:20.167Z,67.15
2019-05-21T15:36:26.695Z,68.31
2019-05-21T15:39:33.325Z,67.96
2019-05-21T15:42:41.879Z,66.70
2019-05-21T15:45:48.361Z,68.66
2019-05-21T15:48:54.826Z,69.96
2019-05-21T15:52:01.444Z,70.17
2019-05-21T15:55:09.317Z,69.17
2019-05-21T15:58:16.042Z,67.60
2019-05-21T16:01:22.601Z,66.17
2019-05-21T16:04:29.128Z,66.12
2019-05-21T16:07:35.804Z,66.13
2019-05-21T16:10:44.230Z,68.01
2019-05-21T16:13:50.812Z,68.76
2019-05-21T16:16:57.385Z,69.02
2019-05-21T16:20:07.112Z,72.70
2019-05-21T16:23:13.606Z,73.59
2019-05-21T16:26:23.417Z,74.96
2019-05-21T16:29:29.742Z,74.24
2019-05-21T16:32:37.158Z,72.84
2019-05-21T16:35:45.477Z,71.15
2019-05-21T16:38:52.066Z,71.45
2019-05-21T16:41:58.608Z,72.64
2019-05-21T16:45:05.748Z,71.76
2019-05-21T16:48:12.340Z,73.77
2019-05-21T16:51:19.510Z,73.84
2019-05-21T16:54:28.655Z,73.28
2019-05-21T16:57:35.588Z,76.98
2019-05-21T17:00:45.292Z,73.03
2019-05-21T17:04:00.059Z,70.25
2019-05-21T17:07:01.862Z,70.40
2019-05-21T17:10:12.163Z,70.95
2019-05-21T17:13:18.667Z,72.64
2019-05-21T17:16:25.750Z,72.85
2019-05-21T17:19:32.219Z,73.34
2019-05-21T17:22:38.815Z,73.56
2019-05-21T17:25:46.852Z,76.41
2019-05-21T17:28:53.354Z,77.95
2019-05-21T17:31:59.850Z,80.28
2019-05-21T17:35:07.019Z,82.41
2019-05-21T17:38:13.599Z,81.26
2019-05-21T17:41:20.266Z,81.47
2019-05-21T17:44:26.825Z,81.78
2019-05-21T17:47:33.350Z,81.70
2019-05-21T17:50:39.996Z,79.31
2019-05-21T17:53:49.109Z,80.67
2019-05-21T17:56:55.567Z,81.30
2019-05-21T18:00:02.283Z,79.74
2019-05-21T18:03:09.088Z,79.37
2019-05-21T18:06:16.290Z,79.96
2019-05-21T18:09:26.585Z,80.34
2019-05-21T18:12:33.023Z,82.12
2019-05-21T18:15:40.061Z,83.50
2019-05-21T18:18:46.850Z,82.27
2019-05-21T18:21:53.810Z,83.11
2019-05-21T18:25:00.610Z,83.63
2019-05-21T18:28:07.630Z,89.05
2019-05-21T18:31:14.486Z,92.79
2019-05-21T18:34:21.006Z,96.12
2019-05-21T18:37:28.699Z,97.30
2019-05-21T18:40:35.251Z,96.57
2019-05-21T18:43:42.115Z,95.22
2019-05-21T18:46:48.762Z,97.04
2019-05-21T18:49:55.631Z,94.13
2019-05-21T18:53:02.139Z,93.80
2019-05-21T18:56:08.762Z,96.02
2019-05-21T18:59:15.331Z,96.84
2019-05-21T19:02:21.962Z,95.58
2019-05-21T19:05:29.658Z,96.62
2019-05-21T19:08:37.630Z,96.10
2019-05-21T19:11:46.281Z,96.10
2019-05-21T19:14:53.029Z,96.20
2019-05-21T19:17:59.608Z,95.51
2019-05-21T19:21:06.509Z,96.09
2019-05-21T19:24:13.181Z,95.85
2019-05-21T19:27:19.844Z,95.60
2019-05-21T19:30:26.411Z,95.95
2019-05-21T19:33:34.141Z,96.84
2019-05-21T19:36:41.263Z,97.38
2019-05-21T19:43:19.058Z,96.54
2019-05-21T19:46:25.812Z,97.22
2019-05-21T19:49:32.367Z,95.99
2019-05-21T19:52:38.988Z,96.26
2019-05-21T19:55:45.909Z,96.15
2019-05-21T19:58:52.681Z,95.50
2019-05-21T20:01:59.217Z,95.70
2019-05-21T20:05:06.194Z,96.54
2019-05-21T20:08:14.507Z,96.43
2019-05-21T20:11:21.192Z,96.52
2019-05-21T20:14:30.920Z,96.84
2019-05-21T20:17:38.827Z,97.25
2019-05-21T20:20:46.176Z,96.21
2019-05-21T20:23:56.225Z,95.73
2019-05-21T20:27:02.807Z,95.35
2019-05-21T20:30:14.447Z,96.39
2019-05-21T20:33:20.367Z,95.93
2019-05-21T20:36:27.542Z,95.78
2019-05-21T20:39:35.139Z,95.71
2019-05-21T20:42:47.537Z,95.83
2019-05-21T20:45:54.980Z,96.36
2019-05-21T20:49:01.808Z,95.94
2019-05-21T20:52:18.087Z,96.60
2019-05-21T20:55:19.058Z,96.74
2019-05-21T20:58:26.034Z,97.31
2019-05-21T21:01:32.943Z,96.92
2019-05-21T21:04:39.801Z,97.68
2019-05-21T21:07:49.527Z,97.23
2019-05-21T21:10:56.779Z,96.50
2019-05-21T21:14:17.445Z,97.59
2019-05-21T21:17:14.521Z,97.46
2019-05-21T21:20:21.532Z,96.58
2019-05-21T21:23:29.817Z,96.99
2019-05-21T21:26:36.681Z,97.90
2019-05-21T21:29:44.679Z,97.61
2019-05-21T21:32:55.235Z,97.29
2019-05-21T21:36:01.713Z,97.04
2019-05-21T21:39:10.674Z,97.78
2019-05-21T21:42:18.273Z,96.58
2019-05-21T21:45:26.018Z,95.86
2019-05-21T21:48:32.749Z,96.98
2019-05-21T21:51:39.506Z,97.38
2019-05-21T21:54:46.812Z,96.84
2019-05-21T21:57:54.490Z,96.76
2019-05-21T22:01:49.422Z,97.21
2019-05-21T22:04:57.667Z,96.96
2019-05-21T22:08:05.103Z,96.11
2019-05-21T22:11:14.784Z,96.30
2019-05-21T22:14:24.252Z,96.80
2019-05-21T22:17:31.220Z,96.61
2019-05-21T22:20:38.225Z,96.81
2019-05-21T22:23:45.165Z,96.73
2019-05-21T22:26:51.868Z,96.98
2019-05-21T22:29:58.663Z,97.08
2019-05-21T22:33:06.322Z,96.67
2019-05-21T22:36:12.928Z,96.90
2019-05-21T22:39:26.892Z,97.23
2019-05-21T22:42:36.573Z,97.14
2019-05-21T22:45:46.156Z,96.75
2019-05-21T22:48:52.776Z,96.52
2019-05-21T22:51:59.346Z,96.13
2019-05-21T22:55:06.058Z,96.41
2019-05-21T22:58:12.913Z,97.04
2019-05-21T23:01:19.538Z,96.86
2019-05-21T23:04:26.374Z,97.01
2019-05-21T23:07:34.675Z,96.91
2019-05-21T23:10:41.617Z,98.34
2019-05-21T23:13:52.530Z,99.02
2019-05-21T23:17:01.042Z,98.80
2019-05-21T23:20:14.905Z,99.11
2019-05-21T23:23:25.811Z,99.80
2019-05-21T23:26:38.035Z,100.00
2019-05-21T23:29:45.210Z,100.00
2019-05-21T23:32:52.183Z,100.00
2019-05-21T23:35:58.979Z,100.00
2019-05-21T23:39:09.665Z,100.00
2019-05-21T23:42:28.655Z,100.00
2019-05-21T23:45:26.970Z,99.86
2019-05-21T23:48:33.515Z,100.00
2019-05-21T23:51:41.272Z,99.73
2019-05-21T23:54:48.094Z,100.00
2019-05-21T23:57:56.713Z,100.00
